Maersk Raleigh — MBFI9 — position and weather

sailwx.info

Track history (hours):
 
Tides and Currents Weather Stations Pressure Air Temp Water Temp Dewpoint Dewpoint Depression Visibility Wind Speed Wind Dir Waves Ship Positions

Maersk Raleigh

Last reported at 2017-Nov-17 20:58 UTC. Time now 2017-Nov-19 15:44 UTC.
Position N 35°57' E 013°55'.

Length 172 m; draft 7.6 m.

Type: Ship. MMSI: 232008765.

Date/timePositionNaut miles runAvg speedWind from/ knotsBaromVisibWave heightAir tempDewpointWater temp
2017-Nov-17 20:58N 35°57' E 013°55'612.8
2017-Nov-17 20:30N 36°02' E 013°60'612.9
2017-Nov-17 20:00N 36°07' E 014°04'612.7
2017-Nov-17 19:30N 36°11' E 014°10'612.5
2017-Nov-17 19:00N 36°13' E 014°18'612.5
2017-Nov-17 18:30N 36°16' E 014°25'612.5
2017-Nov-17 18:01N 36°19' E 014°32'63 1.5
2017-Nov-15 22:54N 37°12' E 015°14'  
2017-Nov-12 13:05N 35°59' E 014°41'111.2
2017-Nov-12 13:00N 35°59' E 014°40'4 7.4
2017-Nov-12 12:30N 35°57' E 014°36'3 5.4
2017-Nov-12 12:00N 35°59' E 014°39'3 5.4
2017-Nov-12 11:30N 35°60' E 014°42'1 1.5
2017-Nov-12 10:35N 35°58' E 014°41'1 5.1
2017-Nov-12 10:26N 35°58' E 014°40'2 5.1
2017-Nov-12 10:00N 35°58' E 014°38'2 4.5
2017-Nov-12 09:30N 35°57' E 014°35'2 3.5
2017-Nov-12 08:59N 35°59' E 014°35'0 0.5
2017-Nov-12 08:30N 35°59' E 014°34'1 1.3
2017-Nov-12 08:00N 35°59' E 014°34'1 2.2
2017-Nov-12 07:30N 35°58' E 014°34'2 3.3
2017-Nov-12 07:00N 35°57' E 014°36'3 7.0
2017-Nov-12 06:30N 35°57' E 014°40'9 0.3
2017-Nov-10 18:19N 35°48' E 014°44'1612.5
2017-Nov-10 17:02N 35°37' E 014°30'012.1
2017-Nov-10 17:00N 35°37' E 014°30'  
Track history (hours):
 
Tides and Currents Weather Stations Pressure Air Temp Water Temp Dewpoint Dewpoint Depression Visibility Wind Speed Wind Dir Waves Ship Positions

Maersk Raleigh

Last reported at 2017-Nov-17 20:58 UTC. Time now 2017-Nov-19 15:44 UTC.
Position N 35°57' E 013°55'.

Length 172 m; draft 7.6 m.

Type: Ship. MMSI: 232008765.

Date/timePositionNaut miles runAvg speedWind from/ knotsBaromVisibWave heightAir tempDewpointWater temp
2017-Nov-17 20:58N 35°57' E 013°55'612.8
2017-Nov-17 20:30N 36°02' E 013°60'612.9
2017-Nov-17 20:00N 36°07' E 014°04'612.7
2017-Nov-17 19:30N 36°11' E 014°10'612.5
2017-Nov-17 19:00N 36°13' E 014°18'612.5
2017-Nov-17 18:30N 36°16' E 014°25'612.5
2017-Nov-17 18:01N 36°19' E 014°32'63 1.5
2017-Nov-15 22:54N 37°12' E 015°14'  
2017-Nov-12 13:05N 35°59' E 014°41'111.2
2017-Nov-12 13:00N 35°59' E 014°40'4 7.4
2017-Nov-12 12:30N 35°57' E 014°36'3 5.4
2017-Nov-12 12:00N 35°59' E 014°39'3 5.4
2017-Nov-12 11:30N 35°60' E 014°42'1 1.5
2017-Nov-12 10:35N 35°58' E 014°41'1 5.1
2017-Nov-12 10:26N 35°58' E 014°40'2 5.1
2017-Nov-12 10:00N 35°58' E 014°38'2 4.5
2017-Nov-12 09:30N 35°57' E 014°35'2 3.5
2017-Nov-12 08:59N 35°59' E 014°35'0 0.5
2017-Nov-12 08:30N 35°59' E 014°34'1 1.3
2017-Nov-12 08:00N 35°59' E 014°34'1 2.2
2017-Nov-12 07:30N 35°58' E 014°34'2 3.3
2017-Nov-12 07:00N 35°57' E 014°36'3 7.0
2017-Nov-12 06:30N 35°57' E 014°40'9 0.3
2017-Nov-10 18:19N 35°48' E 014°44'1612.5
2017-Nov-10 17:02N 35°37' E 014°30'012.1
2017-Nov-10 17:00N 35°37' E 014°30'  

Dump ship's entire track history